Time;durP1;ratioP1;P1;durP2;ratioP2;P2;SDS_P1;SDS_P2;PMS_P1;PMS_P2;Temp;Humidity;BMP_temperature;BMP_pressure;BME280_temperature;BME280_humidity;BME280_pressure;Samples;Min_cycle;Max_cycle;Signal;HPM_P1;HPM_P2
2021/12/02 00:04:07;;;;;;;2.47;2.10;;;9.10;99.90;;;;;;10472577;28;20200;-85
2021/12/02 00:09:09;;;;;;;1.70;1.60;;;9.10;99.90;;;;;;10493723;28;20220;-85
2021/12/02 00:14:14;;;;;;;1.70;1.60;;;9.10;99.90;;;;;;10457107;28;20205;-85
2021/12/02 00:24:38;;;;;;;2.00;1.90;;;8.90;99.90;;;;;;10451614;28;20203;-85
2021/12/02 00:29:46;;;;;;;1.97;1.87;;;8.90;99.90;;;;;;10449423;28;20229;-85
2021/12/02 00:34:48;;;;;;;1.57;1.47;;;8.80;99.90;;;;;;10463536;28;20201;-85
2021/12/02 00:39:52;;;;;;;1.60;1.50;;;8.70;99.90;;;;;;10438453;28;20697;-85
2021/12/02 00:44:59;;;;;;;1.60;1.50;;;8.70;99.90;;;;;;10456846;28;20212;-86
2021/12/02 00:50:01;;;;;;;1.73;1.33;;;8.50;99.90;;;;;;10467311;28;20216;-86
2021/12/02 00:55:04;;;;;;;1.70;1.60;;;8.50;99.90;;;;;;10471115;28;20688;-86
2021/12/02 01:00:09;;;;;;;1.80;1.70;;;8.40;99.90;;;;;;10459667;28;20212;-86
2021/12/02 01:05:12;;;;;;;1.93;1.60;;;8.30;99.90;;;;;;10476890;28;20205;-85
2021/12/02 01:10:14;;;;;;;2.63;1.63;;;8.20;99.90;;;;;;10490377;28;20288;-85
2021/12/02 01:15:18;;;;;;;2.57;1.73;;;8.20;99.90;;;;;;10491893;28;20200;-84
2021/12/02 01:20:20;;;;;;;2.80;1.90;;;8.20;99.90;;;;;;10492437;28;20238;-85
2021/12/02 01:25:22;;;;;;;1.93;1.80;;;8.20;99.90;;;;;;10469317;28;20327;-85
2021/12/02 01:30:28;;;;;;;2.87;2.00;;;8.30;99.90;;;;;;10492130;28;20220;-84
2021/12/02 01:35:32;;;;;;;1.70;1.60;;;8.30;99.90;;;;;;10476595;28;20202;-85
2021/12/02 01:40:35;;;;;;;2.33;2.23;;;8.30;99.90;;;;;;10446497;28;20204;-84
2021/12/02 01:45:40;;;;;;;2.60;1.97;;;8.40;99.90;;;;;;10492318;28;20220;-84
2021/12/02 01:50:44;;;;;;;1.60;1.50;;;8.50;99.90;;;;;;10485214;28;20230;-84
2021/12/02 01:55:54;;;;;;;1.70;1.60;;;8.50;99.90;;;;;;10466379;28;20236;-85
2021/12/02 02:01:00;;;;;;;2.20;1.63;;;8.50;99.90;;;;;;10448487;28;20207;-84
2021/12/02 02:06:05;;;;;;;1.70;1.60;;;8.50;99.90;;;;;;10454192;28;20308;-84
2021/12/02 02:11:08;;;;;;;1.73;1.60;;;8.50;99.90;;;;;;10450966;28;20221;-84
2021/12/02 02:16:12;;;;;;;2.10;1.90;;;8.40;99.90;;;;;;10463889;28;20225;-84
2021/12/02 02:21:18;;;;;;;2.13;2.03;;;8.30;99.90;;;;;;10470292;28;20193;-84
2021/12/02 02:26:24;;;;;;;2.50;1.80;;;8.20;99.90;;;;;;10475571;28;20711;-83
2021/12/02 02:31:29;;;;;;;1.50;1.40;;;8.10;99.90;;;;;;10487877;28;20236;-84
2021/12/02 02:36:37;;;;;;;1.70;1.57;;;8.10;99.90;;;;;;10510308;22;20227;-80
2021/12/02 02:41:41;;;;;;;1.67;1.40;;;8.10;99.90;;;;;;10559547;28;20223;-80
2021/12/02 02:46:44;;;;;;;1.80;1.60;;;8.10;99.90;;;;;;10557132;28;20720;-80
2021/12/02 02:51:47;;;;;;;1.67;1.47;;;8.00;99.90;;;;;;10590573;28;20233;-80
2021/12/02 02:56:54;;;;;;;1.60;1.50;;;7.90;99.90;;;;;;10589332;28;20211;-80
2021/12/02 03:02:06;;;;;;;1.40;1.40;;;7.80;99.90;;;;;;10589102;28;20199;-80
2021/12/02 03:07:13;;;;;;;1.50;1.40;;;7.70;99.90;;;;;;10585869;28;20294;-80
2021/12/02 03:12:20;;;;;;;2.03;1.80;;;7.60;99.90;;;;;;10583572;28;20704;-80
2021/12/02 03:17:22;;;;;;;2.83;1.50;;;7.60;99.90;;;;;;10567474;28;20241;-80
2021/12/02 03:22:27;;;;;;;2.27;1.80;;;7.50;99.90;;;;;;10557978;28;20726;-80
2021/12/02 03:27:29;;;;;;;1.60;1.60;;;7.50;99.90;;;;;;10573718;28;20637;-80
2021/12/02 03:32:31;;;;;;;1.70;1.60;;;7.40;99.90;;;;;;10566284;28;20306;-80
2021/12/02 03:37:34;;;;;;;3.80;1.53;;;7.40;99.90;;;;;;10588047;28;20363;-80
2021/12/02 03:42:37;;;;;;;2.13;1.93;;;7.40;99.90;;;;;;10585626;28;20554;-80
2021/12/02 03:47:39;;;;;;;1.53;1.43;;;7.40;99.90;;;;;;10586958;28;20219;-80
2021/12/02 03:52:44;;;;;;;2.37;1.67;;;7.40;99.90;;;;;;10587959;28;20260;-80
2021/12/02 03:57:46;;;;;;;2.10;2.00;;;7.30;99.90;;;;;;10587252;28;20211;-80
2021/12/02 04:02:48;;;;;;;1.63;1.47;;;7.30;99.90;;;;;;10573382;28;20198;-80
2021/12/02 04:07:51;;;;;;;1.50;1.40;;;7.30;99.90;;;;;;10588433;28;20223;-80
2021/12/02 04:13:02;;;;;;;2.00;1.90;;;7.30;99.90;;;;;;10587297;28;20223;-80
2021/12/02 04:18:04;;;;;;;1.97;1.87;;;7.30;99.90;;;;;;10570758;28;20244;-80
2021/12/02 04:23:07;;;;;;;2.00;1.90;;;7.40;99.90;;;;;;10587841;28;20230;-80
2021/12/02 04:28:10;;;;;;;1.80;1.70;;;7.50;99.90;;;;;;10588908;28;20237;-80
2021/12/02 04:33:12;;;;;;;2.43;2.20;;;7.50;99.90;;;;;;10582503;28;20278;-80
2021/12/02 04:38:15;;;;;;;2.13;2.00;;;7.60;99.90;;;;;;10584708;28;20227;-80
2021/12/02 04:43:17;;;;;;;2.20;2.10;;;7.70;99.90;;;;;;10582423;28;20211;-79
2021/12/02 04:48:20;;;;;;;2.00;1.90;;;7.80;99.90;;;;;;10565679;28;20234;-79
2021/12/02 04:53:23;;;;;;;1.80;1.70;;;7.80;99.90;;;;;;10583460;28;20199;-80
2021/12/02 04:58:26;;;;;;;1.80;1.70;;;7.80;99.90;;;;;;10557299;28;20314;-79
2021/12/02 05:03:28;;;;;;;1.80;1.70;;;7.70;99.90;;;;;;10575654;28;20206;-79
2021/12/02 05:08:31;;;;;;;2.20;1.97;;;7.70;99.90;;;;;;10582745;28;20645;-80
2021/12/02 05:13:33;;;;;;;2.03;1.83;;;7.60;99.90;;;;;;10583451;28;20296;-80
2021/12/02 05:18:35;;;;;;;1.93;1.80;;;7.60;99.90;;;;;;10583423;28;20219;-81
2021/12/02 05:23:39;;;;;;;1.60;1.30;;;7.50;99.90;;;;;;10566776;28;20725;-81
2021/12/02 05:28:41;;;;;;;2.00;1.90;;;7.50;99.90;;;;;;10567069;28;20219;-80
2021/12/02 05:33:43;;;;;;;2.20;2.00;;;7.50;99.90;;;;;;10557677;28;20649;-80
2021/12/02 05:38:47;;;;;;;2.40;2.07;;;7.50;99.90;;;;;;10576707;28;20298;-81
2021/12/02 05:43:49;;;;;;;1.93;1.83;;;7.40;99.90;;;;;;10586330;28;20297;-79
2021/12/02 05:48:51;;;;;;;2.73;1.63;;;7.40;99.90;;;;;;10579603;28;20234;-80
2021/12/02 05:53:54;;;;;;;3.00;1.90;;;7.40;99.90;;;;;;10584438;28;20205;-79
2021/12/02 05:58:56;;;;;;;1.73;1.63;;;7.30;99.90;;;;;;10580343;28;20219;-83
2021/12/02 06:03:58;;;;;;;1.23;1.03;;;7.30;99.90;;;;;;10562580;28;20199;-84
2021/12/02 06:09:02;;;;;;;1.60;1.50;;;7.40;99.90;;;;;;10579301;28;20658;-83
2021/12/02 06:14:05;;;;;;;1.60;1.50;;;7.40;99.90;;;;;;10557667;28;20690;-83
2021/12/02 06:19:07;;;;;;;1.97;1.67;;;7.40;99.90;;;;;;10580742;28;20219;-83
2021/12/02 06:24:11;;;;;;;1.80;1.70;;;7.50;99.90;;;;;;10580372;28;20219;-83
2021/12/02 06:29:13;;;;;;;4.23;1.33;;;7.40;99.90;;;;;;10560045;28;20223;-82
2021/12/02 06:34:15;;;;;;;1.80;1.70;;;7.50;99.90;;;;;;10563389;28;20203;-83
2021/12/02 06:39:18;;;;;;;1.70;1.60;;;7.50;99.90;;;;;;10579892;28;20260;-83
2021/12/02 06:44:20;;;;;;;1.50;1.40;;;7.40;99.90;;;;;;10581850;28;20191;-82
2021/12/02 06:49:22;;;;;;;1.47;1.40;;;7.30;99.90;;;;;;10579942;28;20233;-83
2021/12/02 06:54:26;;;;;;;1.80;1.70;;;7.20;99.90;;;;;;10566446;27;20199;-82
2021/12/02 06:59:28;;;;;;;1.27;1.03;;;7.10;99.90;;;;;;10569375;28;20211;-83
2021/12/02 07:04:30;;;;;;;1.57;1.47;;;7.00;99.90;;;;;;10587721;28;20195;-83
2021/12/02 07:09:34;;;;;;;1.87;1.77;;;7.00;99.90;;;;;;10588624;28;20235;-82
2021/12/02 07:14:36;;;;;;;1.90;1.80;;;7.00;99.90;;;;;;10587622;28;20231;-83
2021/12/02 07:19:40;;;;;;;1.37;1.37;;;6.90;99.90;;;;;;10571532;28;20292;-83
2021/12/02 07:24:43;;;;;;;2.23;1.97;;;6.90;99.90;;;;;;10570638;28;20237;-83
2021/12/02 07:29:46;;;;;;;1.90;1.80;;;7.00;99.90;;;;;;10588772;28;20215;-83
2021/12/02 07:34:51;;;;;;;1.80;1.70;;;7.00;99.90;;;;;;10570998;28;20199;-83
2021/12/02 07:39:56;;;;;;;1.83;1.73;;;7.00;99.90;;;;;;10575055;28;20234;-83
2021/12/02 07:44:58;;;;;;;1.73;1.63;;;6.90;99.90;;;;;;10590305;28;20681;-83
2021/12/02 07:50:01;;;;;;;2.97;2.00;;;7.00;99.90;;;;;;10579048;28;20246;-82
2021/12/02 07:55:07;;;;;;;2.10;2.00;;;7.10;99.90;;;;;;10588823;28;20199;-82
2021/12/02 08:00:10;;;;;;;2.20;2.10;;;7.00;99.90;;;;;;10567499;28;20223;-82
2021/12/02 08:05:13;;;;;;;2.10;2.00;;;7.00;99.90;;;;;;10553352;28;20666;-82
2021/12/02 08:10:17;;;;;;;2.77;1.60;;;6.90;99.90;;;;;;10585998;28;20281;-83
2021/12/02 08:15:21;;;;;;;1.80;1.70;;;7.00;99.90;;;;;;10585704;28;20233;-82
2021/12/02 08:20:26;;;;;;;2.23;2.10;;;7.00;99.90;;;;;;10568874;28;20250;-83
2021/12/02 08:25:31;;;;;;;1.90;1.80;;;6.90;99.90;;;;;;10563717;28;20199;-83
2021/12/02 08:30:37;;;;;;;1.97;1.87;;;7.00;99.90;;;;;;10559942;28;20219;-83
2021/12/02 08:35:39;;;;;;;2.00;1.90;;;7.10;99.90;;;;;;10563505;28;20206;-83
2021/12/02 08:40:43;;;;;;;1.90;1.80;;;7.20;99.90;;;;;;10572253;28;20228;-82
2021/12/02 08:45:45;;;;;;;2.10;2.00;;;7.30;99.90;;;;;;10584094;28;20223;-81
2021/12/02 08:50:48;;;;;;;2.67;1.93;;;7.40;99.90;;;;;;10571966;28;20217;-81
2021/12/02 08:55:51;;;;;;;2.20;2.10;;;7.50;99.90;;;;;;10591138;28;20857;-82
2021/12/02 09:00:53;;;;;;;3.00;2.13;;;7.50;99.90;;;;;;10590049;28;20219;-82
2021/12/02 09:05:56;;;;;;;2.03;1.93;;;7.50;99.90;;;;;;10574307;28;20234;-82
2021/12/02 09:10:59;;;;;;;2.10;2.00;;;7.60;99.90;;;;;;10579429;28;20683;-81
2021/12/02 09:16:01;;;;;;;2.20;2.10;;;7.60;99.90;;;;;;10569313;28;20318;-81
2021/12/02 09:21:03;;;;;;;1.97;1.87;;;7.60;99.90;;;;;;10569424;28;20205;-81
2021/12/02 09:26:07;;;;;;;2.10;2.00;;;7.70;99.90;;;;;;10564848;28;20230;-81
2021/12/02 09:31:09;;;;;;;1.90;1.80;;;7.70;99.90;;;;;;10561297;28;20556;-82
2021/12/02 09:36:11;;;;;;;2.30;2.10;;;7.80;99.90;;;;;;10583663;28;20306;-81
2021/12/02 09:41:15;;;;;;;4.40;2.67;;;7.90;99.90;;;;;;10576760;28;20655;-81
2021/12/02 09:46:17;;;;;;;3.50;2.30;;;8.00;99.90;;;;;;10584270;28;20219;-82
2021/12/02 09:51:22;;;;;;;2.47;2.37;;;8.10;99.90;;;;;;10581255;28;20219;-81
2021/12/02 09:56:30;;;;;;;2.73;2.10;;;8.10;99.90;;;;;;10550050;28;20561;-82
2021/12/02 10:01:39;;;;;;;2.53;2.20;;;8.20;99.90;;;;;;10559994;28;20218;-82
2021/12/02 10:06:42;;;;;;;7.10;2.20;;;8.20;99.90;;;;;;10562736;28;20219;-82
2021/12/02 10:11:50;;;;;;;2.30;2.20;;;8.20;99.90;;;;;;10569617;28;20265;-82
2021/12/02 10:17:07;;;;;;;3.33;2.43;;;8.20;99.90;;;;;;10558245;28;20298;-82
2021/12/02 10:22:12;;;;;;;2.73;2.40;;;8.10;99.90;;;;;;10578238;28;20190;-81
2021/12/02 10:27:16;;;;;;;1.80;1.70;;;7.80;99.90;;;;;;10579692;28;20268;-82
2021/12/02 10:32:21;;;;;;;1.90;1.80;;;7.60;99.90;;;;;;10574896;28;20227;-81
2021/12/02 10:37:25;;;;;;;2.03;1.93;;;7.50;99.90;;;;;;10585742;28;20223;-81
2021/12/02 10:42:30;;;;;;;2.00;1.90;;;7.30;99.90;;;;;;10593098;28;20202;-80
2021/12/02 10:47:33;;;;;;;2.10;2.00;;;7.20;99.90;;;;;;10590284;28;20592;-81
2021/12/02 10:52:37;;;;;;;2.23;2.00;;;7.20;99.90;;;;;;10582091;28;20683;-82
2021/12/02 10:57:46;;;;;;;3.77;2.37;;;7.20;99.90;;;;;;10596559;27;20215;-81
2021/12/02 11:02:50;;;;;;;1.90;1.80;;;7.20;99.90;;;;;;10593971;28;20670;-81
2021/12/02 11:07:54;;;;;;;2.00;1.90;;;7.20;99.90;;;;;;10584237;28;20275;-82
2021/12/02 11:12:57;;;;;;;1.27;1.27;;;7.10;99.90;;;;;;10589867;28;20215;-81
2021/12/02 11:18:02;;;;;;;2.13;2.03;;;7.10;99.90;;;;;;10573048;28;20242;-82
2021/12/02 11:23:07;;;;;;;2.20;2.00;;;7.10;99.90;;;;;;10588541;28;20195;-82
2021/12/02 11:28:11;;;;;;;2.20;2.10;;;7.10;99.90;;;;;;10609876;28;20298;-82
2021/12/02 11:33:18;;;;;;;2.37;2.17;;;7.20;99.90;;;;;;10615191;28;20211;-82
2021/12/02 11:38:25;;;;;;;1.40;1.20;;;7.10;99.90;;;;;;10571703;28;20325;-81
2021/12/02 11:43:30;;;;;;;1.70;1.60;;;7.20;99.90;;;;;;10566931;28;20199;-81
2021/12/02 11:48:34;;;;;;;2.40;2.30;;;7.20;99.90;;;;;;10585427;28;20219;-81
2021/12/02 11:53:36;;;;;;;2.50;2.30;;;7.20;99.90;;;;;;10568594;28;20249;-82
2021/12/02 11:58:40;;;;;;;2.00;1.90;;;7.20;99.90;;;;;;10580330;28;20582;-82
2021/12/02 12:03:44;;;;;;;1.80;1.70;;;7.30;99.90;;;;;;10587354;28;20195;-82
2021/12/02 12:08:51;;;;;;;2.30;2.20;;;7.30;99.90;;;;;;10566965;28;20296;-82
2021/12/02 12:13:56;;;;;;;3.37;2.40;;;7.40;99.90;;;;;;10571520;28;20730;-82
2021/12/02 12:19:14;;;;;;;2.20;2.10;;;7.40;99.90;;;;;;10578984;28;20212;-82
2021/12/02 12:24:17;;;;;;;2.40;2.30;;;7.50;99.90;;;;;;10583339;28;20230;-82
2021/12/02 12:29:21;;;;;;;2.20;2.10;;;7.60;99.90;;;;;;10587402;28;20258;-82
2021/12/02 12:34:44;;;;;;;3.50;2.53;;;7.60;99.90;;;;;;10587166;28;20273;-82
2021/12/02 12:40:05;;;;;;;2.70;2.50;;;7.70;99.90;;;;;;10587261;28;20238;-82
2021/12/02 12:45:10;;;;;;;2.87;2.67;;;7.80;99.90;;;;;;10582826;28;20228;-82
2021/12/02 12:50:23;;;;;;;2.30;2.20;;;7.90;99.90;;;;;;10570581;28;20246;-82
2021/12/02 12:55:25;;;;;;;2.30;2.20;;;7.90;99.90;;;;;;10589254;28;20207;-82
2021/12/02 13:00:38;;;;;;;2.60;2.40;;;8.00;99.90;;;;;;10582501;28;20211;-82
2021/12/02 13:05:44;;;;;;;2.80;2.60;;;7.90;99.90;;;;;;10569208;28;20213;-82
2021/12/02 13:10:52;;;;;;;3.30;2.40;;;7.90;99.90;;;;;;10589245;28;20252;-82
2021/12/02 13:16:09;;;;;;;2.50;2.40;;;8.00;99.90;;;;;;10590285;28;20215;-82
2021/12/02 13:21:31;;;;;;;4.60;2.90;;;8.00;99.90;;;;;;10568516;28;20271;-82
2021/12/02 13:26:36;;;;;;;3.80;2.63;;;8.00;99.90;;;;;;10590701;28;20391;-83
2021/12/02 13:31:41;;;;;;;2.80;2.70;;;8.00;99.90;;;;;;10577876;28;20211;-82
2021/12/02 13:36:46;;;;;;;3.80;3.50;;;7.90;99.90;;;;;;10572084;28;20616;-81
2021/12/02 13:41:51;;;;;;;2.97;2.77;;;7.90;99.90;;;;;;10587754;28;20697;-82
2021/12/02 13:46:57;;;;;;;3.67;2.97;;;8.00;99.90;;;;;;10585434;28;20272;-82
2021/12/02 13:52:23;;;;;;;3.67;3.37;;;7.90;99.90;;;;;;10587130;28;20248;-82
2021/12/02 13:57:35;;;;;;;2.70;2.53;;;7.90;99.90;;;;;;10563490;28;20227;-82
2021/12/02 14:02:38;;;;;;;1.97;1.87;;;7.80;99.90;;;;;;10588262;28;20456;-82
2021/12/02 14:07:43;;;;;;;2.10;2.00;;;7.60;99.90;;;;;;10596704;28;20231;-82
2021/12/02 14:12:47;;;;;;;2.40;1.90;;;7.40;99.90;;;;;;10566726;28;20454;-82
2021/12/02 14:17:54;;;;;;;2.40;2.20;;;7.40;99.90;;;;;;10592306;28;20682;-82
2021/12/02 14:22:57;;;;;;;3.27;2.53;;;7.20;99.90;;;;;;10582064;28;20226;-82
2021/12/02 14:28:19;;;;;;;2.03;1.93;;;7.20;99.90;;;;;;10591253;28;20251;-82
2021/12/02 14:33:26;;;;;;;2.67;2.47;;;7.20;99.90;;;;;;10575418;28;20276;-82
2021/12/02 14:38:31;;;;;;;2.30;2.20;;;7.10;99.90;;;;;;10576830;28;20224;-83
2021/12/02 14:43:34;;;;;;;2.17;1.93;;;7.20;99.90;;;;;;10583582;28;20194;-82
2021/12/02 14:48:38;;;;;;;3.60;2.60;;;7.10;99.90;;;;;;10581437;28;20328;-82
2021/12/02 14:53:43;;;;;;;3.13;2.93;;;7.20;99.90;;;;;;10588244;28;20595;-82
2021/12/02 14:59:09;;;;;;;2.67;2.57;;;7.10;99.90;;;;;;10600584;28;20875;-83
2021/12/02 15:04:18;;;;;;;3.03;2.90;;;7.10;99.90;;;;;;10593067;28;20209;-83
2021/12/02 15:09:28;;;;;;;3.00;2.80;;;7.00;99.90;;;;;;10589597;28;20234;-82
2021/12/02 15:14:37;;;;;;;5.50;3.83;;;7.00;99.90;;;;;;10599297;28;20237;-82
2021/12/02 15:19:45;;;;;;;4.23;3.47;;;7.10;99.90;;;;;;10588762;28;20314;-81
2021/12/02 15:24:47;;;;;;;3.67;3.27;;;7.00;99.90;;;;;;10569107;28;20191;-83
2021/12/02 15:29:52;;;;;;;2.73;2.43;;;7.00;99.90;;;;;;10582285;28;20249;-82
2021/12/02 15:34:56;;;;;;;3.40;2.93;;;7.00;99.90;;;;;;10596309;28;20215;-82
2021/12/02 15:39:58;;;;;;;1.97;1.80;;;6.90;99.90;;;;;;10594202;28;20229;-82
2021/12/02 15:45:00;;;;;;;1.93;1.70;;;6.90;99.90;;;;;;10596904;28;20206;-82
2021/12/02 15:50:10;;;;;;;1.10;1.10;;;6.80;99.90;;;;;;10605553;28;20223;-82
2021/12/02 15:55:12;;;;;;;1.67;1.57;;;6.80;99.90;;;;;;10582240;28;20773;-81
2021/12/02 16:00:18;;;;;;;1.73;1.63;;;6.70;99.90;;;;;;10600419;28;20298;-82
2021/12/02 16:05:29;;;;;;;2.40;2.20;;;6.60;99.90;;;;;;10595981;28;20202;-82
2021/12/02 16:15:50;;;;;;;2.60;2.00;;;6.50;99.90;;;;;;10609272;28;20203;-81
2021/12/02 16:20:58;;;;;;;2.00;1.90;;;6.40;99.90;;;;;;10592776;28;20199;-81
2021/12/02 16:26:00;;;;;;;2.50;2.40;;;6.30;99.90;;;;;;10595081;28;20214;-81
2021/12/02 16:31:03;;;;;;;2.57;2.37;;;6.30;99.90;;;;;;10565170;28;20713;-82
2021/12/02 16:36:12;;;;;;;2.70;2.60;;;6.30;99.90;;;;;;10594299;28;20379;-82
2021/12/02 16:41:14;;;;;;;3.57;3.37;;;6.30;99.90;;;;;;10602953;28;20279;-81
2021/12/02 16:46:16;;;;;;;2.93;2.73;;;6.30;99.90;;;;;;10581961;28;20219;-81
2021/12/02 16:51:20;;;;;;;3.00;2.80;;;6.30;99.90;;;;;;10600379;28;20211;-82
2021/12/02 16:56:22;;;;;;;3.57;3.27;;;6.40;99.90;;;;;;10595678;28;20230;-82
2021/12/02 17:01:27;;;;;;;7.43;4.10;;;6.40;99.90;;;;;;10609077;28;20223;-82
2021/12/02 17:06:31;;;;;;;3.67;3.03;;;6.40;99.90;;;;;;10613037;28;20219;-83
2021/12/02 17:11:33;;;;;;;3.60;3.40;;;6.50;99.90;;;;;;10578435;28;20219;-82
2021/12/02 17:16:36;;;;;;;3.77;3.57;;;6.50;99.90;;;;;;10578160;28;20318;-82
2021/12/02 17:21:39;;;;;;;3.80;3.50;;;6.40;99.90;;;;;;10596279;28;20754;-81
2021/12/02 17:26:42;;;;;;;3.70;3.40;;;6.40;99.90;;;;;;10597577;28;20759;-82
2021/12/02 17:31:44;;;;;;;3.83;3.53;;;6.30;99.90;;;;;;10600069;28;20237;-81
2021/12/02 17:36:49;;;;;;;2.80;2.60;;;6.20;99.90;;;;;;10573646;28;20230;-82
2021/12/02 17:41:53;;;;;;;3.23;2.80;;;6.20;99.90;;;;;;10598655;28;20202;-83
2021/12/02 17:46:57;;;;;;;3.97;3.67;;;6.20;99.90;;;;;;10581350;28;20219;-81
2021/12/02 17:52:01;;;;;;;3.30;3.10;;;6.10;99.90;;;;;;10584629;28;20226;-83
2021/12/02 17:57:04;;;;;;;3.00;2.80;;;6.00;99.90;;;;;;10576893;28;20230;-84
2021/12/02 18:02:06;;;;;;;3.90;3.20;;;5.90;99.90;;;;;;10571525;28;20214;-83
2021/12/02 19:39:22;;;;;;;4.13;3.83;;;6.10;99.90;;;;;;10588692;27;20201;-82
2021/12/02 19:44:24;;;;;;;8.23;5.30;;;6.10;99.90;;;;;;10585372;28;20699;-83
2021/12/02 19:49:27;;;;;;;6.13;5.60;;;6.10;99.90;;;;;;10570664;28;20690;-83
2021/12/02 19:54:31;;;;;;;5.80;5.30;;;6.10;99.90;;;;;;10588713;28;20237;-83
2021/12/02 19:59:33;;;;;;;5.20;4.80;;;6.20;99.90;;;;;;10570344;28;20771;-83
2021/12/02 20:04:36;;;;;;;5.93;5.17;;;6.20;99.90;;;;;;10580795;28;20191;-83
2021/12/02 20:09:39;;;;;;;6.20;5.43;;;6.20;99.90;;;;;;10569856;28;20223;-82
2021/12/02 20:14:42;;;;;;;5.30;4.90;;;6.20;99.90;;;;;;10563515;28;20602;-85
2021/12/02 20:19:45;;;;;;;5.50;5.00;;;6.20;99.90;;;;;;10567842;28;20223;-84
2021/12/02 20:24:49;;;;;;;5.33;4.93;;;6.20;99.90;;;;;;10585548;28;20191;-84
2021/12/02 20:29:52;;;;;;;5.03;4.57;;;6.20;99.90;;;;;;10585430;28;20227;-84
2021/12/02 20:34:54;;;;;;;5.43;4.90;;;6.30;99.90;;;;;;10589651;28;20709;-83
2021/12/02 20:39:58;;;;;;;4.77;4.47;;;6.20;99.90;;;;;;10581241;27;20283;-84
2021/12/02 20:45:02;;;;;;;4.27;3.87;;;6.20;99.90;;;;;;10562364;28;20199;-84
2021/12/02 20:50:10;;;;;;;4.47;4.17;;;6.20;99.90;;;;;;10584260;28;20247;-85
2021/12/02 20:55:16;;;;;;;4.90;4.10;;;6.20;99.90;;;;;;10570302;28;20584;-84
2021/12/02 21:00:22;;;;;;;5.77;5.27;;;6.20;99.90;;;;;;10560001;28;20275;-79
2021/12/02 21:05:24;;;;;;;4.00;3.80;;;6.20;99.90;;;;;;10583627;28;20219;-80
2021/12/02 21:10:30;;;;;;;3.97;3.67;;;6.20;99.90;;;;;;10594238;27;20219;-80
2021/12/02 21:15:33;;;;;;;5.33;4.27;;;6.20;99.90;;;;;;10585465;28;20215;-80
2021/12/02 21:20:35;;;;;;;4.77;4.40;;;6.20;99.90;;;;;;10585272;28;20620;-79
2021/12/02 21:25:39;;;;;;;4.60;4.30;;;6.20;99.90;;;;;;10579165;28;20281;-80
2021/12/02 21:30:41;;;;;;;4.83;4.43;;;6.10;99.90;;;;;;10570020;28;20685;-79
2021/12/02 21:35:47;;;;;;;4.60;3.90;;;6.20;99.90;;;;;;10586450;28;20237;-79
2021/12/02 21:40:52;;;;;;;7.10;4.63;;;6.20;99.90;;;;;;10594462;28;20199;-79
2021/12/02 21:45:55;;;;;;;4.60;4.20;;;6.10;99.90;;;;;;10574681;28;20282;-80
2021/12/02 21:50:57;;;;;;;4.80;4.30;;;6.10;99.90;;;;;;10582797;28;20237;-79
2021/12/02 21:56:03;;;;;;;4.83;4.43;;;6.10;99.90;;;;;;10573485;28;20230;-80
2021/12/02 22:01:07;;;;;;;4.90;4.50;;;6.10;99.90;;;;;;10585672;28;20823;-78
2021/12/02 22:06:09;;;;;;;4.93;4.60;;;6.10;99.90;;;;;;10587857;28;20699;-79
2021/12/02 22:11:13;;;;;;;5.20;4.80;;;6.10;99.90;;;;;;10590146;28;20234;-80
2021/12/02 22:16:15;;;;;;;4.57;4.20;;;6.10;99.90;;;;;;10586908;28;20223;-80
2021/12/02 22:21:18;;;;;;;4.77;4.37;;;6.10;99.90;;;;;;10586149;28;20227;-79
2021/12/02 22:26:21;;;;;;;5.33;4.90;;;6.00;99.90;;;;;;10579607;28;20256;-78
2021/12/02 22:31:23;;;;;;;5.50;5.00;;;6.00;99.90;;;;;;10587481;28;20201;-78
2021/12/02 22:36:26;;;;;;;4.73;4.33;;;6.00;99.90;;;;;;10588792;28;20242;-78
2021/12/02 22:41:30;;;;;;;5.10;4.70;;;6.00;99.90;;;;;;10592220;28;20286;-79
2021/12/02 22:46:32;;;;;;;5.37;4.87;;;6.00;99.90;;;;;;10579619;28;20313;-78
2021/12/02 22:51:36;;;;;;;5.80;4.93;;;6.10;99.90;;;;;;10595583;28;20199;-78
2021/12/02 22:56:40;;;;;;;7.37;4.93;;;6.10;99.90;;;;;;10594379;28;20223;-78
2021/12/02 23:01:42;;;;;;;5.00;4.60;;;6.10;99.90;;;;;;10595140;28;20199;-79
2021/12/02 23:06:44;;;;;;;4.90;4.50;;;6.10;99.90;;;;;;10596371;28;20230;-79
2021/12/02 23:11:48;;;;;;;5.27;4.77;;;6.10;99.90;;;;;;10580605;28;20210;-80
2021/12/02 23:16:51;;;;;;;5.00;4.70;;;6.00;99.90;;;;;;10599364;28;20298;-80
2021/12/02 23:21:56;;;;;;;5.00;4.70;;;6.00;99.90;;;;;;10598860;28;20203;-80
2021/12/02 23:27:04;;;;;;;5.20;4.73;;;6.00;99.90;;;;;;10600662;28;20215;-79
2021/12/02 23:32:07;;;;;;;5.10;4.70;;;6.00;99.90;;;;;;10599125;28;20211;-80
2021/12/02 23:37:09;;;;;;;4.73;4.30;;;5.90;99.90;;;;;;10600110;27;20596;-81
2021/12/02 23:42:12;;;;;;;4.87;4.47;;;5.90;99.90;;;;;;10594627;28;20195;-80
2021/12/02 23:47:14;;;;;;;5.13;4.73;;;5.90;99.90;;;;;;10588317;28;20233;-80
2021/12/02 23:52:16;;;;;;;5.50;5.07;;;5.90;99.90;;;;;;10571768;28;20225;-81
2021/12/02 23:57:20;;;;;;;4.97;4.53;;;5.80;99.90;;;;;;10591617;28;20219;-80
